createdAt,value
2023-05-19T00:00:18.509Z,7.61
2023-05-19T00:02:45.595Z,7.60
2023-05-19T00:05:15.526Z,7.60
2023-05-19T00:07:45.997Z,7.58
2023-05-19T00:10:13.967Z,7.56
2023-05-19T00:12:42.862Z,7.59
2023-05-19T00:15:13.079Z,7.51
2023-05-19T00:17:39.685Z,7.43
2023-05-19T00:20:06.929Z,7.40
2023-05-19T00:22:33.562Z,7.35
2023-05-19T00:25:00.346Z,7.34
2023-05-19T00:27:26.957Z,7.32
2023-05-19T00:29:53.724Z,7.31
2023-05-19T00:32:21.359Z,7.24
2023-05-19T00:34:48.329Z,7.23
2023-05-19T00:37:16.187Z,7.16
2023-05-19T00:39:42.723Z,7.20
2023-05-19T00:42:09.543Z,7.16
2023-05-19T00:44:40.791Z,7.16
2023-05-19T00:47:10.400Z,7.17
2023-05-19T00:49:36.851Z,7.08
2023-05-19T00:52:06.161Z,7.07
2023-05-19T00:54:34.533Z,7.05
2023-05-19T00:57:01.309Z,7.03
2023-05-19T00:59:28.006Z,7.03
2023-05-19T01:01:54.699Z,7.00
2023-05-19T01:04:21.940Z,6.95
2023-05-19T01:06:49.493Z,6.92
2023-05-19T01:09:17.398Z,6.84
2023-05-19T01:11:43.844Z,6.80
2023-05-19T01:14:10.498Z,6.80
2023-05-19T01:16:42.496Z,6.77
2023-05-19T01:19:51.105Z,6.77
2023-05-19T01:22:42.195Z,6.65
2023-05-19T01:25:08.731Z,6.63
2023-05-19T01:28:08.033Z,6.59
2023-05-19T01:30:38.591Z,6.53
2023-05-19T01:33:08.309Z,6.51
2023-05-19T01:35:36.689Z,6.46
2023-05-19T01:38:05.370Z,6.46
2023-05-19T01:40:33.499Z,6.45
2023-05-19T01:43:01.901Z,6.40
2023-05-19T01:45:30.291Z,6.42
2023-05-19T01:47:59.115Z,6.37
2023-05-19T01:50:26.927Z,6.35
2023-05-19T01:52:55.371Z,6.38
2023-05-19T01:55:23.893Z,6.29
2023-05-19T01:58:06.609Z,6.27
2023-05-19T02:00:54.275Z,6.27
2023-05-19T02:03:42.759Z,6.24
2023-05-19T02:06:30.448Z,6.22
2023-05-19T02:08:59.576Z,6.20
2023-05-19T02:11:36.463Z,6.14
2023-05-19T02:14:24.831Z,6.12
2023-05-19T02:16:52.577Z,6.12
2023-05-19T02:19:24.320Z,6.10
2023-05-19T02:21:51.362Z,6.10
2023-05-19T02:24:18.617Z,6.10
2023-05-19T02:26:47.178Z,6.14
2023-05-19T02:29:16.032Z,6.15
2023-05-19T02:31:42.824Z,6.16
2023-05-19T02:34:09.722Z,6.19
2023-05-19T02:36:36.684Z,6.17
2023-05-19T02:39:04.292Z,6.19
2023-05-19T02:41:32.102Z,6.22
2023-05-19T02:43:58.827Z,6.24
2023-05-19T02:46:25.455Z,6.28
2023-05-19T02:48:53.329Z,6.31
2023-05-19T02:51:20.051Z,6.35
2023-05-19T02:53:46.803Z,6.36
2023-05-19T02:56:13.707Z,6.35
2023-05-19T02:58:40.259Z,6.33
2023-05-19T03:01:07.051Z,6.36
2023-05-19T03:03:33.700Z,6.41
2023-05-19T03:06:00.351Z,6.38
2023-05-19T03:08:27.141Z,6.38
2023-05-19T03:10:53.925Z,6.39
2023-05-19T03:13:20.740Z,6.42
2023-05-19T03:15:47.582Z,6.41
2023-05-19T03:18:14.274Z,6.40
2023-05-19T03:20:41.731Z,6.41
2023-05-19T03:23:08.345Z,6.38
2023-05-19T03:25:35.142Z,6.38
2023-05-19T03:28:01.791Z,6.40
2023-05-19T03:30:28.607Z,6.38
2023-05-19T03:32:55.272Z,6.38
2023-05-19T03:35:21.971Z,6.36
2023-05-19T03:37:48.762Z,6.37
2023-05-19T03:40:16.097Z,6.37
2023-05-19T03:42:42.541Z,6.41
2023-05-19T03:45:09.342Z,6.42
2023-05-19T03:47:36.166Z,6.45
2023-05-19T03:50:02.883Z,6.45
2023-05-19T03:52:29.756Z,6.49
2023-05-19T03:54:56.322Z,6.51
2023-05-19T03:57:22.940Z,6.55
2023-05-19T03:59:49.830Z,6.60
2023-05-19T04:02:16.980Z,6.64
2023-05-19T04:04:43.668Z,6.69
2023-05-19T04:07:10.245Z,6.69
2023-05-19T04:09:36.736Z,6.73
2023-05-19T04:12:03.341Z,6.78
2023-05-19T04:14:29.848Z,6.84
2023-05-19T04:16:56.371Z,6.91
2023-05-19T04:19:23.460Z,6.96
2023-05-19T04:21:50.048Z,7.01
2023-05-19T04:24:18.616Z,7.05
2023-05-19T04:26:45.384Z,7.13
2023-05-19T04:29:12.018Z,7.16
2023-05-19T04:31:38.654Z,7.23
2023-05-19T04:34:05.514Z,7.27
2023-05-19T04:36:32.395Z,7.31
2023-05-19T04:38:58.948Z,7.36
2023-05-19T04:41:25.782Z,7.39
2023-05-19T04:43:52.322Z,7.42
2023-05-19T04:46:19.511Z,7.52
2023-05-19T04:48:45.873Z,7.57
2023-05-19T04:51:12.447Z,7.65
2023-05-19T04:53:39.260Z,7.73
2023-05-19T04:56:06.358Z,7.75
2023-05-19T04:58:34.494Z,7.82
2023-05-19T05:01:01.273Z,7.87
2023-05-19T05:03:30.061Z,7.99
2023-05-19T05:05:56.753Z,8.04
2023-05-19T05:08:23.502Z,8.11
2023-05-19T05:10:53.765Z,8.21
2023-05-19T05:13:24.090Z,8.29
2023-05-19T05:15:51.186Z,8.38
2023-05-19T05:18:17.813Z,8.49
2023-05-19T05:20:45.721Z,8.52
2023-05-19T05:23:12.800Z,8.62
2023-05-19T05:25:39.674Z,8.72
2023-05-19T05:28:06.481Z,8.86
2023-05-19T05:30:34.642Z,8.94
2023-05-19T05:33:02.335Z,9.04
2023-05-19T05:35:28.948Z,9.17
2023-05-19T05:37:55.689Z,9.35
2023-05-19T05:40:22.245Z,9.47
2023-05-19T05:42:48.766Z,9.62
2023-05-19T05:45:15.507Z,9.72
2023-05-19T05:47:42.370Z,9.86
2023-05-19T05:50:10.423Z,9.96
2023-05-19T05:52:37.724Z,10.10
2023-05-19T05:55:06.515Z,10.29
2023-05-19T05:57:34.842Z,10.39
2023-05-19T06:00:01.402Z,10.50
2023-05-19T06:02:28.044Z,10.56
2023-05-19T06:04:54.609Z,10.67
2023-05-19T06:07:21.649Z,10.78
2023-05-19T06:09:48.468Z,10.95
2023-05-19T06:12:15.070Z,11.05
2023-05-19T06:14:41.805Z,11.17
2023-05-19T06:17:08.357Z,11.38
2023-05-19T06:19:35.229Z,11.42
2023-05-19T06:22:01.740Z,11.58
2023-05-19T06:24:28.485Z,11.69
2023-05-19T06:26:55.974Z,11.73
2023-05-19T06:29:23.171Z,11.91
2023-05-19T06:31:50.121Z,12.00
2023-05-19T06:34:16.646Z,12.15
2023-05-19T06:36:43.318Z,12.29
2023-05-19T06:39:09.990Z,12.34
2023-05-19T06:41:36.724Z,12.49
2023-05-19T06:44:04.641Z,12.69
2023-05-19T06:46:31.272Z,12.79
2023-05-19T06:48:57.843Z,12.83
2023-05-19T06:51:24.587Z,12.86
2023-05-19T06:53:51.323Z,13.01
2023-05-19T06:56:17.935Z,13.13
2023-05-19T06:58:45.390Z,13.13
2023-05-19T07:01:11.913Z,13.11
2023-05-19T07:03:38.801Z,13.18
2023-05-19T07:06:07.859Z,13.19
2023-05-19T07:08:35.191Z,13.32
2023-05-19T07:11:01.727Z,13.52
2023-05-19T07:13:28.303Z,13.71
2023-05-19T07:15:55.275Z,13.83
2023-05-19T07:18:22.516Z,14.08
2023-05-19T07:20:49.144Z,14.23
2023-05-19T07:23:17.346Z,14.34
2023-05-19T07:25:44.407Z,14.49
2023-05-19T07:28:10.989Z,14.59
2023-05-19T07:30:37.841Z,14.63
2023-05-19T07:33:04.872Z,14.71
2023-05-19T07:35:31.718Z,14.64
2023-05-19T07:37:58.350Z,14.69
2023-05-19T07:40:24.967Z,14.73
2023-05-19T07:42:52.126Z,14.71
2023-05-19T07:45:18.765Z,14.78
2023-05-19T07:47:45.413Z,14.79
2023-05-19T07:50:12.237Z,15.04
2023-05-19T07:52:38.808Z,15.16
2023-05-19T07:55:05.634Z,15.27
2023-05-19T07:57:34.546Z,15.34
2023-05-19T08:00:01.078Z,15.53
2023-05-19T08:02:27.944Z,15.70
2023-05-19T08:04:54.582Z,15.68
2023-05-19T08:07:21.195Z,15.72
2023-05-19T08:09:48.028Z,15.86
2023-05-19T08:12:14.837Z,15.97
2023-05-19T08:14:41.611Z,16.04
2023-05-19T08:17:08.336Z,16.09
2023-05-19T08:19:35.418Z,16.26
2023-05-19T08:22:01.998Z,16.35
2023-05-19T08:24:28.520Z,16.55
2023-05-19T08:26:55.471Z,16.76
2023-05-19T08:29:22.192Z,16.82
2023-05-19T08:31:49.149Z,17.04
2023-05-19T08:34:15.788Z,17.16
2023-05-19T08:36:42.516Z,17.17
2023-05-19T08:39:09.365Z,17.35
2023-05-19T08:41:36.263Z,17.35
2023-05-19T08:44:02.941Z,17.33
2023-05-19T08:46:29.801Z,17.50
2023-05-19T08:48:59.684Z,17.63
2023-05-19T08:52:00.021Z,17.81
2023-05-19T08:54:33.191Z,17.97
2023-05-19T08:57:02.857Z,18.16
2023-05-19T08:59:30.527Z,18.15
2023-05-19T09:01:57.606Z,18.14
2023-05-19T09:04:26.437Z,18.38
2023-05-19T09:06:54.338Z,18.73
2023-05-19T09:09:21.636Z,18.86
2023-05-19T09:11:48.417Z,19.09
2023-05-19T09:14:14.942Z,19.00
2023-05-19T09:16:42.017Z,18.90
2023-05-19T09:19:14.230Z,18.85
2023-05-19T09:21:40.734Z,18.75
2023-05-19T09:24:09.590Z,18.39
2023-05-19T09:26:39.906Z,18.44
2023-05-19T09:29:16.749Z,18.34
2023-05-19T09:31:54.181Z,18.36
2023-05-19T09:34:21.945Z,18.44
2023-05-19T09:36:48.951Z,18.76
2023-05-19T09:39:16.320Z,19.13
2023-05-19T09:41:43.584Z,19.22
2023-05-19T09:44:28.368Z,19.60
2023-05-19T09:46:55.616Z,19.44
2023-05-19T09:49:26.928Z,19.40
2023-05-19T09:51:57.867Z,19.61
2023-05-19T09:54:25.234Z,19.71
2023-05-19T09:57:00.541Z,19.51
2023-05-19T09:59:31.341Z,19.63
2023-05-19T10:02:00.239Z,19.11
2023-05-19T10:04:29.091Z,19.04
2023-05-19T10:06:57.726Z,19.09
2023-05-19T10:09:25.933Z,19.39
2023-05-19T10:11:53.757Z,19.35
2023-05-19T10:14:27.020Z,19.70
2023-05-19T10:16:57.292Z,19.83
2023-05-19T10:19:25.963Z,20.06
2023-05-19T10:21:52.878Z,20.42
2023-05-19T10:24:19.949Z,20.36
2023-05-19T10:27:00.664Z,19.89
2023-05-19T10:29:30.592Z,19.96
2023-05-19T10:32:04.714Z,20.16
2023-05-19T10:35:05.759Z,20.19
2023-05-19T10:37:58.824Z,19.98
2023-05-19T10:40:29.570Z,20.12
2023-05-19T10:43:17.613Z,20.12
2023-05-19T10:45:54.642Z,20.36
2023-05-19T10:48:21.463Z,20.27
2023-05-19T10:50:49.335Z,20.08
2023-05-19T10:53:17.879Z,20.01
2023-05-19T10:55:47.959Z,19.75
2023-05-19T10:58:14.876Z,19.90
2023-05-19T11:00:41.541Z,20.29
2023-05-19T11:03:14.805Z,20.44
2023-05-19T11:05:41.704Z,20.28
2023-05-19T11:08:08.239Z,20.48
2023-05-19T11:10:34.762Z,20.37
2023-05-19T11:13:01.244Z,20.15
2023-05-19T11:15:28.600Z,20.14
2023-05-19T11:17:55.629Z,19.86
2023-05-19T11:20:23.394Z,19.67
2023-05-19T11:23:16.106Z,20.18
2023-05-19T11:25:50.054Z,20.50
2023-05-19T11:28:18.583Z,19.73
2023-05-19T11:30:46.915Z,19.74
2023-05-19T11:33:14.033Z,19.42
2023-05-19T11:35:41.021Z,19.63
2023-05-19T11:38:07.687Z,20.20
2023-05-19T11:40:34.335Z,20.33
2023-05-19T11:43:00.823Z,20.64
2023-05-19T11:45:29.398Z,20.91
2023-05-19T11:48:01.846Z,20.67
2023-05-19T11:50:31.443Z,20.41
2023-05-19T11:53:00.605Z,20.38
2023-05-19T11:55:27.707Z,20.65
2023-05-19T11:58:04.964Z,20.44
2023-05-19T12:00:38.606Z,20.26
2023-05-19T12:03:06.017Z,20.30
2023-05-19T12:05:36.623Z,20.34
2023-05-19T12:08:06.344Z,20.45
2023-05-19T12:10:33.028Z,20.46
2023-05-19T12:12:59.548Z,20.38
2023-05-19T12:15:26.495Z,20.42
2023-05-19T12:18:02.419Z,20.36
2023-05-19T12:20:29.952Z,20.31
2023-05-19T12:22:56.669Z,20.62
2023-05-19T12:25:24.316Z,20.89
2023-05-19T12:27:51.159Z,20.94
2023-05-19T12:30:17.730Z,20.45
2023-05-19T12:32:46.011Z,20.16
2023-05-19T12:35:12.580Z,20.25
2023-05-19T12:37:42.624Z,20.58
2023-05-19T12:40:09.803Z,21.09
2023-05-19T12:42:36.480Z,21.29
2023-05-19T12:45:04.201Z,20.90
2023-05-19T12:47:32.710Z,20.52
2023-05-19T12:49:59.236Z,21.19
2023-05-19T12:52:27.190Z,21.44
2023-05-19T12:55:00.666Z,21.77
2023-05-19T12:57:28.724Z,20.96
2023-05-19T13:00:00.991Z,20.51
2023-05-19T13:02:27.674Z,20.68
2023-05-19T13:04:54.130Z,20.90
2023-05-19T13:07:21.494Z,21.02
2023-05-19T13:09:48.263Z,20.85
2023-05-19T13:12:14.790Z,20.85
2023-05-19T13:14:41.610Z,20.51
2023-05-19T13:17:08.146Z,20.11
2023-05-19T13:19:35.180Z,19.94
2023-05-19T13:22:01.783Z,19.71
2023-05-19T13:24:28.263Z,19.89
2023-05-19T13:26:56.017Z,19.90
2023-05-19T13:29:22.928Z,19.82
2023-05-19T13:31:49.467Z,19.41
2023-05-19T13:34:15.987Z,19.30
2023-05-19T13:36:42.809Z,19.38
2023-05-19T13:39:09.559Z,19.56
2023-05-19T13:41:36.054Z,19.48
2023-05-19T13:44:02.740Z,19.12
2023-05-19T13:46:40.746Z,19.25
2023-05-19T13:49:11.170Z,19.37
2023-05-19T13:51:37.925Z,19.23
2023-05-19T13:54:04.290Z,19.22
2023-05-19T13:56:30.803Z,19.32
2023-05-19T13:58:57.290Z,19.30
2023-05-19T14:01:23.776Z,19.23
2023-05-19T14:03:50.382Z,19.25
2023-05-19T14:06:16.871Z,18.93
2023-05-19T14:08:43.623Z,18.86
2023-05-19T14:11:09.971Z,18.64
2023-05-19T14:13:40.388Z,18.67
2023-05-19T14:16:09.263Z,18.85
2023-05-19T14:18:36.038Z,19.01
2023-05-19T14:21:02.781Z,18.80
2023-05-19T14:23:29.133Z,19.01
2023-05-19T14:25:56.217Z,19.19
2023-05-19T14:28:22.891Z,19.14
2023-05-19T14:30:50.263Z,19.09
2023-05-19T14:33:17.345Z,19.13
2023-05-19T14:35:44.224Z,19.07
2023-05-19T14:38:10.845Z,18.72
2023-05-19T14:40:37.858Z,18.40
2023-05-19T14:43:04.490Z,18.39
2023-05-19T14:45:30.917Z,18.43
2023-05-19T14:47:58.129Z,18.42
2023-05-19T14:50:26.093Z,18.32
2023-05-19T14:52:53.534Z,18.25
2023-05-19T14:55:21.853Z,18.29
2023-05-19T14:57:51.166Z,18.47
2023-05-19T15:00:18.326Z,18.36
2023-05-19T15:02:46.374Z,18.40
2023-05-19T15:05:13.068Z,18.38
2023-05-19T15:07:40.388Z,18.73
2023-05-19T15:10:07.757Z,19.11
2023-05-19T15:12:34.658Z,19.27
2023-05-19T15:15:03.436Z,19.24
2023-05-19T15:17:30.179Z,19.18
2023-05-19T15:19:56.825Z,19.00
2023-05-19T15:22:23.566Z,18.69
2023-05-19T15:24:50.123Z,18.44
2023-05-19T15:27:16.883Z,18.35
2023-05-19T15:29:43.393Z,18.55
2023-05-19T15:32:10.190Z,18.59
2023-05-19T15:34:36.868Z,18.66
2023-05-19T15:37:03.932Z,18.91
2023-05-19T15:39:34.649Z,18.73
2023-05-19T15:42:03.636Z,18.60
2023-05-19T15:44:31.608Z,18.35
2023-05-19T15:47:01.463Z,18.20
2023-05-19T15:49:28.037Z,18.16
2023-05-19T15:51:54.796Z,18.00
2023-05-19T15:54:21.128Z,17.96
2023-05-19T15:56:47.966Z,17.91
2023-05-19T15:59:14.958Z,17.90
2023-05-19T16:01:41.703Z,17.93
2023-05-19T16:04:08.214Z,18.01
2023-05-19T16:06:35.122Z,17.96
2023-05-19T16:09:02.330Z,17.77
2023-05-19T16:11:29.062Z,17.80
2023-05-19T16:13:55.662Z,17.87
2023-05-19T16:16:22.493Z,17.76
2023-05-19T16:18:49.433Z,17.71
2023-05-19T16:21:17.525Z,17.76
2023-05-19T16:23:44.352Z,17.70
2023-05-19T16:26:11.358Z,17.80
2023-05-19T16:28:38.521Z,17.69
2023-05-19T16:31:05.269Z,17.75
2023-05-19T16:33:31.828Z,17.81
2023-05-19T16:35:59.115Z,17.85
2023-05-19T16:38:26.055Z,17.79
2023-05-19T16:40:52.753Z,17.91
2023-05-19T16:43:19.465Z,17.84
2023-05-19T16:45:46.406Z,17.92
2023-05-19T16:48:13.006Z,17.59
2023-05-19T16:50:39.629Z,17.72
2023-05-19T16:53:06.556Z,17.65
2023-05-19T16:55:34.339Z,17.68
2023-05-19T16:58:01.083Z,17.60
2023-05-19T17:00:27.902Z,17.61
2023-05-19T17:02:54.608Z,17.56
2023-05-19T17:05:21.472Z,17.54
2023-05-19T17:07:47.947Z,17.37
2023-05-19T17:10:14.779Z,17.44
2023-05-19T17:12:41.338Z,17.49
2023-05-19T17:15:08.237Z,17.59
2023-05-19T17:17:34.706Z,17.61
2023-05-19T17:20:03.582Z,17.48
2023-05-19T17:22:30.524Z,17.42
2023-05-19T17:24:57.355Z,17.44
2023-05-19T17:27:23.887Z,17.35
2023-05-19T17:29:50.460Z,17.15
2023-05-19T17:32:17.378Z,17.16
2023-05-19T17:34:44.511Z,17.11
2023-05-19T17:37:11.380Z,17.03
2023-05-19T17:39:39.564Z,16.93
2023-05-19T17:42:06.204Z,16.76
2023-05-19T17:44:33.022Z,16.60
2023-05-19T17:47:01.795Z,16.45
2023-05-19T17:49:29.969Z,16.50
2023-05-19T17:51:56.716Z,16.42
2023-05-19T17:54:23.661Z,16.40
2023-05-19T17:56:51.109Z,16.31
2023-05-19T17:59:17.890Z,16.26
2023-05-19T18:01:44.881Z,16.18
2023-05-19T18:04:16.053Z,16.13
2023-05-19T18:06:45.221Z,16.02
2023-05-19T18:09:13.850Z,16.08
2023-05-19T18:11:44.559Z,15.90
2023-05-19T18:14:11.102Z,15.95
2023-05-19T18:16:38.913Z,15.86
2023-05-19T18:19:05.893Z,15.80
2023-05-19T18:21:32.498Z,15.76
2023-05-19T18:23:59.370Z,15.72
2023-05-19T18:26:27.704Z,15.63
2023-05-19T18:28:54.704Z,15.64
2023-05-19T18:31:21.278Z,15.54
2023-05-19T18:33:49.346Z,15.48
2023-05-19T18:36:16.233Z,15.44
2023-05-19T18:38:42.908Z,15.39
2023-05-19T18:41:09.633Z,15.30
2023-05-19T18:43:36.140Z,15.21
2023-05-19T18:46:05.519Z,15.21
2023-05-19T18:48:32.138Z,15.18
2023-05-19T18:50:59.634Z,15.04
2023-05-19T18:53:26.880Z,15.01
2023-05-19T18:55:56.335Z,14.90
2023-05-19T18:58:22.852Z,14.89
2023-05-19T19:00:49.388Z,14.82
2023-05-19T19:03:16.309Z,14.80
2023-05-19T19:05:43.805Z,14.71
2023-05-19T19:08:10.332Z,14.65
2023-05-19T19:10:37.423Z,14.54
2023-05-19T19:13:04.440Z,14.50
2023-05-19T19:15:31.029Z,14.45
2023-05-19T19:17:57.661Z,14.43
2023-05-19T19:20:27.275Z,14.40
2023-05-19T19:22:53.782Z,14.36
2023-05-19T19:25:23.095Z,14.27
2023-05-19T19:27:50.247Z,14.15
2023-05-19T19:30:16.842Z,14.12
2023-05-19T19:32:43.831Z,14.07
2023-05-19T19:35:11.015Z,14.04
2023-05-19T19:37:38.499Z,13.98
2023-05-19T19:40:06.025Z,13.86
2023-05-19T19:42:32.789Z,13.87
2023-05-19T19:44:59.488Z,13.81
2023-05-19T19:47:27.149Z,13.66
2023-05-19T19:49:54.024Z,13.61
2023-05-19T19:52:20.711Z,13.56
2023-05-19T19:54:47.482Z,13.49
2023-05-19T19:57:14.436Z,13.45
2023-05-19T19:59:40.856Z,13.40
2023-05-19T20:02:07.688Z,13.34
2023-05-19T20:04:34.491Z,13.25
2023-05-19T20:07:01.429Z,13.24
2023-05-19T20:09:27.955Z,13.30
2023-05-19T20:11:54.574Z,13.19
2023-05-19T20:14:21.313Z,13.14
2023-05-19T20:16:48.171Z,13.10
2023-05-19T20:19:14.967Z,12.96
2023-05-19T20:21:42.151Z,12.86
2023-05-19T20:24:08.952Z,12.83
2023-05-19T20:26:36.012Z,12.78
2023-05-19T20:29:03.121Z,12.76
2023-05-19T20:31:29.808Z,12.71
2023-05-19T20:33:57.308Z,12.68
2023-05-19T20:36:25.243Z,12.61
2023-05-19T20:38:51.822Z,12.50
2023-05-19T20:41:18.656Z,12.46
2023-05-19T20:43:45.158Z,12.43
2023-05-19T20:46:12.072Z,12.39
2023-05-19T20:48:38.846Z,12.33
2023-05-19T20:51:05.552Z,12.31
2023-05-19T20:53:32.328Z,12.24
2023-05-19T20:55:59.128Z,12.21
2023-05-19T20:58:27.852Z,12.10
2023-05-19T21:00:54.769Z,12.05
2023-05-19T21:03:23.384Z,11.99
2023-05-19T21:05:51.983Z,11.96
2023-05-19T21:08:19.729Z,11.90
2023-05-19T21:10:46.366Z,11.90
2023-05-19T21:13:13.109Z,11.82
2023-05-19T21:15:39.780Z,11.80
2023-05-19T21:18:07.454Z,11.71
2023-05-19T21:20:36.629Z,11.70
2023-05-19T21:23:03.785Z,11.65
2023-05-19T21:25:30.419Z,11.60
2023-05-19T21:27:58.436Z,11.55
2023-05-19T21:30:25.240Z,11.49
2023-05-19T21:32:52.087Z,11.48
2023-05-19T21:35:18.789Z,11.44
2023-05-19T21:37:45.656Z,11.40
2023-05-19T21:40:12.889Z,11.31
2023-05-19T21:42:39.655Z,11.27
2023-05-19T21:45:06.981Z,11.23
2023-05-19T21:47:33.521Z,11.22
2023-05-19T21:50:00.211Z,11.18
2023-05-19T21:52:27.348Z,11.15
2023-05-19T21:54:53.972Z,11.08
2023-05-19T21:57:20.497Z,11.06
2023-05-19T21:59:47.146Z,11.05
2023-05-19T22:02:13.678Z,11.05
2023-05-19T22:04:41.431Z,11.02
2023-05-19T22:07:08.037Z,11.02
2023-05-19T22:09:34.548Z,10.95
2023-05-19T22:12:01.430Z,10.91
2023-05-19T22:14:27.959Z,10.91
2023-05-19T22:16:54.538Z,10.81
2023-05-19T22:19:21.492Z,10.80
2023-05-19T22:21:49.242Z,10.80
2023-05-19T22:24:17.177Z,10.76
2023-05-19T22:26:43.800Z,10.72
2023-05-19T22:29:10.578Z,10.73
2023-05-19T22:31:37.292Z,10.67
2023-05-19T22:34:04.170Z,10.64
2023-05-19T22:36:30.728Z,10.61
2023-05-19T22:38:58.656Z,10.62
2023-05-19T22:41:31.100Z,10.57
2023-05-19T22:43:57.845Z,10.51
2023-05-19T22:46:24.653Z,10.51
2023-05-19T22:48:51.200Z,10.47
2023-05-19T22:51:17.651Z,10.47
2023-05-19T22:53:44.186Z,10.41
2023-05-19T22:56:10.689Z,10.39
2023-05-19T22:58:37.253Z,10.37
2023-05-19T23:01:04.036Z,10.36
2023-05-19T23:03:30.523Z,10.36
2023-05-19T23:05:57.100Z,10.33
2023-05-19T23:08:23.884Z,10.27
2023-05-19T23:10:50.647Z,10.25
2023-05-19T23:13:17.414Z,10.18
2023-05-19T23:15:44.149Z,10.15
2023-05-19T23:18:10.975Z,10.10
2023-05-19T23:20:37.572Z,10.12
2023-05-19T23:23:04.377Z,10.07
2023-05-19T23:25:31.197Z,10.04
2023-05-19T23:27:57.971Z,10.04
2023-05-19T23:30:24.675Z,9.97
2023-05-19T23:32:51.391Z,9.93
2023-05-19T23:35:18.322Z,9.88
2023-05-19T23:37:45.113Z,9.83
2023-05-19T23:40:13.480Z,9.80
2023-05-19T23:42:40.291Z,9.76
2023-05-19T23:45:07.477Z,9.73
2023-05-19T23:47:36.482Z,9.68
2023-05-19T23:50:03.375Z,9.64
2023-05-19T23:52:29.956Z,9.65
2023-05-19T23:54:58.538Z,9.64
2023-05-19T23:57:26.930Z,9.60
2023-05-19T23:59:53.434Z,9.55
